createdAt,value
2022-08-17T00:02:26.267Z,27.90
2022-08-17T00:06:29.966Z,29.60
2022-08-17T00:10:11.871Z,31.90
2022-08-17T00:13:57.811Z,33.37
2022-08-17T00:17:42.251Z,33.28
2022-08-17T00:21:25.294Z,31.33
2022-08-17T00:25:13.047Z,33.07
2022-08-17T00:28:55.421Z,32.80
2022-08-17T00:33:12.680Z,34.17
2022-08-17T00:36:48.140Z,33.10
2022-08-17T00:40:40.759Z,33.33
2022-08-17T00:44:30.011Z,36.22
2022-08-17T00:48:29.088Z,36.83
2022-08-17T00:52:20.702Z,30.83
2022-08-17T00:56:07.625Z,35.22
2022-08-17T01:00:03.330Z,32.33
2022-08-17T01:03:46.004Z,39.20
2022-08-17T01:07:28.136Z,36.22
2022-08-17T01:11:10.350Z,34.15
2022-08-17T01:14:52.270Z,34.13
2022-08-17T01:18:35.063Z,40.58
2022-08-17T01:22:23.325Z,37.20
2022-08-17T01:26:06.589Z,36.70
2022-08-17T01:29:53.773Z,34.80
2022-08-17T01:33:36.067Z,35.83
2022-08-17T01:37:19.663Z,34.10
2022-08-17T01:41:11.843Z,35.53
2022-08-17T01:44:57.673Z,32.53
2022-08-17T01:48:40.080Z,33.55
2022-08-17T01:52:24.389Z,34.03
2022-08-17T01:56:10.509Z,35.35
2022-08-17T01:59:52.608Z,32.33
2022-08-17T02:03:36.558Z,34.58
2022-08-17T02:07:19.216Z,36.50
2022-08-17T02:11:12.108Z,35.60
2022-08-17T02:14:54.204Z,37.05
2022-08-17T02:18:36.191Z,34.83
2022-08-17T02:22:18.657Z,34.63
2022-08-17T02:26:01.758Z,34.65
2022-08-17T02:29:43.684Z,34.90
2022-08-17T02:33:42.677Z,37.95
2022-08-17T02:37:27.108Z,38.08
2022-08-17T02:41:09.394Z,35.72
2022-08-17T02:44:51.295Z,34.87
2022-08-17T02:48:33.185Z,36.10
2022-08-17T02:52:15.156Z,32.90
2022-08-17T02:55:57.121Z,33.77
2022-08-17T02:59:44.266Z,38.15
2022-08-17T03:03:30.408Z,35.67
2022-08-17T03:07:12.317Z,37.47
2022-08-17T03:10:54.306Z,33.53
2022-08-17T03:14:43.424Z,36.17
2022-08-17T03:18:26.326Z,35.22
2022-08-17T03:22:36.229Z,35.27
2022-08-17T03:26:12.362Z,35.00
2022-08-17T03:29:57.322Z,35.38
2022-08-17T03:33:39.221Z,35.17
2022-08-17T03:37:21.128Z,34.42
2022-08-17T03:41:05.906Z,38.72
2022-08-17T03:44:51.645Z,37.78
2022-08-17T03:48:57.668Z,38.00
2022-08-17T03:52:57.994Z,38.33
2022-08-17T03:56:43.586Z,40.78
2022-08-17T04:00:26.561Z,38.47
2022-08-17T04:04:08.481Z,35.67
2022-08-17T04:07:51.979Z,46.20
2022-08-17T04:11:35.573Z,42.17
2022-08-17T04:15:18.387Z,41.33
2022-08-17T04:19:00.908Z,38.08
2022-08-17T04:23:09.589Z,40.40
2022-08-17T04:26:52.925Z,39.28
2022-08-17T04:30:38.068Z,45.60
2022-08-17T04:34:20.355Z,51.00
2022-08-17T04:38:02.426Z,47.60
2022-08-17T04:42:03.155Z,43.50
2022-08-17T04:45:55.671Z,41.13
2022-08-17T04:49:38.747Z,46.83
2022-08-17T04:53:22.022Z,47.50
2022-08-17T04:57:03.970Z,44.50
2022-08-17T05:00:46.685Z,46.83
2022-08-17T05:04:33.950Z,47.30
2022-08-17T05:08:19.503Z,41.10
2022-08-17T05:12:02.535Z,42.70
2022-08-17T05:15:47.639Z,48.60
2022-08-17T05:19:29.890Z,49.50
2022-08-17T05:23:14.922Z,45.25
2022-08-17T05:26:57.513Z,44.50
2022-08-17T05:30:43.312Z,45.35
2022-08-17T05:34:25.213Z,43.70
2022-08-17T05:38:08.413Z,45.83
2022-08-17T05:41:50.303Z,44.78
2022-08-17T05:45:54.937Z,47.13
2022-08-17T05:49:34.666Z,49.05
2022-08-17T05:53:28.786Z,43.80
2022-08-17T05:57:29.056Z,46.90
2022-08-17T06:01:31.921Z,47.03
2022-08-17T06:05:55.798Z,48.97
2022-08-17T06:09:38.734Z,46.78
2022-08-17T06:13:46.174Z,46.50
2022-08-17T06:17:30.145Z,45.75
2022-08-17T06:21:32.099Z,46.47
2022-08-17T06:25:18.071Z,45.38
2022-08-17T06:29:35.697Z,43.65
2022-08-17T06:37:30.256Z,41.13
2022-08-17T06:45:36.326Z,42.70
2022-08-17T06:50:04.286Z,39.13
2022-08-17T06:58:05.338Z,37.13
2022-08-17T07:02:18.113Z,37.78
2022-08-17T07:10:23.137Z,38.00
2022-08-17T07:18:15.676Z,36.72
2022-08-17T07:22:54.785Z,36.70
2022-08-17T07:27:17.093Z,35.13
2022-08-17T07:35:17.988Z,40.03
2022-08-17T07:39:26.243Z,34.95
2022-08-17T07:47:47.857Z,31.02
2022-08-17T07:52:47.738Z,31.40
2022-08-17T07:56:34.947Z,30.93
2022-08-17T08:05:13.856Z,28.33
2022-08-17T08:09:44.668Z,26.23
2022-08-17T08:13:29.894Z,25.58
2022-08-17T08:17:46.562Z,24.45
2022-08-17T08:26:38.455Z,25.50
2022-08-17T08:30:21.915Z,24.08
2022-08-17T08:35:02.546Z,24.50
2022-08-17T08:39:02.972Z,24.63
2022-08-17T08:43:30.277Z,25.20
2022-08-17T08:52:32.254Z,23.00
2022-08-17T09:01:32.446Z,22.52
2022-08-17T09:06:03.062Z,25.10
2022-08-17T09:10:33.365Z,22.70
2022-08-17T09:19:01.473Z,24.25
2022-08-17T09:23:12.524Z,22.43
2022-08-17T09:31:12.936Z,29.48
2022-08-17T09:39:11.494Z,27.13
2022-08-17T09:43:16.483Z,23.90
2022-08-17T09:51:08.646Z,25.45
2022-08-17T09:54:54.516Z,22.75
2022-08-17T10:02:49.716Z,22.70
2022-08-17T10:06:58.738Z,25.83
2022-08-17T10:15:13.561Z,21.03
2022-08-17T10:19:20.971Z,19.57
2022-08-17T10:32:01.893Z,19.10
2022-08-17T10:36:29.587Z,19.23
2022-08-17T10:40:39.495Z,20.85
2022-08-17T10:45:10.446Z,16.98
2022-08-17T10:49:40.644Z,15.63
2022-08-17T10:53:32.153Z,18.23
2022-08-17T10:57:35.395Z,18.60
2022-08-17T11:01:18.264Z,18.03
2022-08-17T11:05:46.763Z,18.67
2022-08-17T11:09:56.667Z,16.88
2022-08-17T11:27:12.029Z,17.30
2022-08-17T11:31:37.810Z,17.70
2022-08-17T11:35:50.729Z,18.95
2022-08-17T11:39:33.110Z,15.00
2022-08-17T11:56:37.410Z,15.00
2022-08-17T12:00:39.927Z,16.00
2022-08-17T12:04:22.784Z,15.48
2022-08-17T12:08:50.730Z,12.90
2022-08-17T12:13:23.972Z,12.60
2022-08-17T12:17:39.649Z,15.20
2022-08-17T12:21:23.588Z,13.38
2022-08-17T12:25:33.255Z,14.43
2022-08-17T12:29:18.504Z,12.82
2022-08-17T12:33:28.763Z,13.23
2022-08-17T12:37:49.314Z,15.73
2022-08-17T12:41:38.953Z,13.00
2022-08-17T12:45:42.209Z,12.85
2022-08-17T12:53:55.510Z,10.67
2022-08-17T12:58:05.902Z,14.25
2022-08-17T13:01:48.663Z,13.23
2022-08-17T13:09:40.674Z,12.30
2022-08-17T13:17:35.945Z,13.38
2022-08-17T13:22:04.587Z,11.68
2022-08-17T13:26:34.072Z,11.48
2022-08-17T13:30:45.101Z,11.10
2022-08-17T13:34:33.321Z,12.40
2022-08-17T13:38:45.896Z,11.15
2022-08-17T13:43:09.244Z,10.00
2022-08-17T13:46:52.530Z,9.23
2022-08-17T13:51:01.287Z,10.50
2022-08-17T13:54:43.253Z,9.73
2022-08-17T13:58:56.577Z,9.25
2022-08-17T14:02:38.602Z,9.38
2022-08-17T14:06:52.005Z,8.35
2022-08-17T14:10:36.534Z,8.48
2022-08-17T14:14:43.745Z,7.47
2022-08-17T14:18:49.851Z,8.15
2022-08-17T14:22:38.163Z,5.72
2022-08-17T14:26:20.493Z,6.23
2022-08-17T14:34:10.734Z,7.90
2022-08-17T14:38:20.377Z,6.53
2022-08-17T14:42:03.034Z,6.70
2022-08-17T14:46:14.273Z,5.88
2022-08-17T14:49:56.480Z,6.75
2022-08-17T14:54:07.368Z,7.87
2022-08-17T14:57:49.874Z,9.73
2022-08-17T15:05:40.597Z,6.10
2022-08-17T15:09:54.398Z,6.32
2022-08-17T15:13:52.355Z,6.95
2022-08-17T15:22:42.521Z,8.77
2022-08-17T15:27:09.893Z,7.47
2022-08-17T15:31:37.302Z,6.95
2022-08-17T15:40:38.996Z,8.55
2022-08-17T15:49:41.926Z,6.18
2022-08-17T15:54:19.119Z,6.60
2022-08-17T15:58:43.776Z,6.18
2022-08-17T16:30:17.873Z,7.00
2022-08-17T16:34:47.997Z,6.70
2022-08-17T16:43:48.995Z,9.95
2022-08-17T16:57:18.829Z,6.53
2022-08-17T17:06:18.596Z,7.47
2022-08-17T17:10:48.982Z,8.18
2022-08-17T17:19:49.212Z,6.18
2022-08-17T17:24:20.510Z,6.45
2022-08-17T17:33:19.346Z,7.20
2022-08-17T17:37:50.337Z,7.07
2022-08-17T17:42:20.697Z,5.85
2022-08-17T17:46:51.010Z,7.43
2022-08-17T17:55:53.228Z,7.68
2022-08-17T18:00:23.181Z,5.43
2022-08-17T18:13:54.698Z,5.82
2022-08-17T18:18:25.881Z,5.68
2022-08-17T18:22:53.334Z,5.60
2022-08-17T18:27:23.847Z,7.63
2022-08-17T18:31:54.440Z,5.75
2022-08-17T18:36:24.765Z,8.33
2022-08-17T18:45:26.787Z,5.55
2022-08-17T18:54:28.018Z,7.53
2022-08-17T18:58:58.100Z,7.68
2022-08-17T19:03:28.429Z,6.43
2022-08-17T19:07:59.163Z,4.97
2022-08-17T19:12:30.163Z,6.60
2022-08-17T19:16:57.773Z,6.18
2022-08-17T19:21:29.086Z,5.50
2022-08-17T19:25:19.771Z,6.50
2022-08-17T19:29:12.131Z,6.13
2022-08-17T19:32:56.106Z,6.78
2022-08-17T19:37:15.302Z,6.85
2022-08-17T19:41:13.462Z,8.30
2022-08-17T19:45:07.682Z,7.00
2022-08-17T19:49:12.972Z,5.30
2022-08-17T19:53:00.925Z,7.18
2022-08-17T19:56:45.972Z,5.38
2022-08-17T20:00:31.338Z,5.57
2022-08-17T20:04:31.737Z,7.57
2022-08-17T20:08:22.853Z,7.68
2022-08-17T20:12:29.082Z,6.32
2022-08-17T20:16:11.903Z,5.90
2022-08-17T20:20:54.497Z,5.53
2022-08-17T20:25:06.389Z,6.80
2022-08-17T20:29:06.580Z,7.33
2022-08-17T20:32:55.669Z,6.18
2022-08-17T20:37:00.500Z,6.90
2022-08-17T20:40:54.639Z,7.87
2022-08-17T20:44:41.149Z,9.82
2022-08-17T20:48:38.719Z,7.28
2022-08-17T20:52:48.669Z,7.15
2022-08-17T20:56:46.510Z,7.32
2022-08-17T21:00:28.419Z,8.63
2022-08-17T21:04:47.496Z,6.78
2022-08-17T21:08:45.930Z,8.03
2022-08-17T21:12:51.039Z,7.30
2022-08-17T21:16:58.826Z,9.40
2022-08-17T21:21:19.266Z,8.53
2022-08-17T21:25:01.239Z,5.55
2022-08-17T21:29:32.063Z,7.18
2022-08-17T21:33:32.210Z,7.53
2022-08-17T21:37:23.382Z,8.55
2022-08-17T21:41:06.310Z,6.20
2022-08-17T21:44:52.390Z,7.07
2022-08-17T21:48:48.319Z,7.53
2022-08-17T21:52:31.012Z,8.05
2022-08-17T21:56:22.459Z,6.80
2022-08-17T22:00:16.379Z,6.03
2022-08-17T22:04:12.315Z,8.50
2022-08-17T22:08:06.502Z,9.10
2022-08-17T22:12:11.424Z,8.55
2022-08-17T22:16:28.780Z,7.45
2022-08-17T22:20:17.304Z,7.00
2022-08-17T22:24:16.038Z,7.57
2022-08-17T22:28:00.291Z,9.80
2022-08-17T22:31:56.823Z,6.47
2022-08-17T22:35:41.518Z,7.72
2022-08-17T22:39:23.651Z,7.00
2022-08-17T22:43:11.964Z,8.77
2022-08-17T22:47:23.398Z,7.85
2022-08-17T22:51:12.267Z,9.02
2022-08-17T22:55:35.735Z,8.55
2022-08-17T22:59:46.799Z,6.38
2022-08-17T23:03:28.832Z,9.90
2022-08-17T23:07:11.068Z,6.97
2022-08-17T23:10:52.980Z,8.13
2022-08-17T23:14:39.465Z,9.18
2022-08-17T23:18:23.664Z,9.07
2022-08-17T23:22:08.808Z,9.82
2022-08-17T23:25:51.036Z,9.90
2022-08-17T23:29:33.559Z,10.65
2022-08-17T23:33:31.246Z,11.68
2022-08-17T23:37:13.283Z,11.50
2022-08-17T23:40:56.636Z,9.90
2022-08-17T23:44:40.185Z,13.93
2022-08-17T23:48:36.345Z,9.80
2022-08-17T23:52:19.222Z,12.32
2022-08-17T23:56:07.019Z,13.53
2022-08-17T23:59:52.607Z,13.13
